Data for 07/13/2009

Time Sea-Level Adjusted Pressure Absolute Pressure Temperature Relative Humidity Dew Point   
(mb) (inHg) (mb) (inHg) (C) (F) (%) (C) (F)
00:05 1022 30.18 852 25.16 14.4 57.9 84 11.8 53.3
00:10 1022 30.18 852 25.16 14.2 57.6 84 11.6 52.8
00:15 1023 30.21 852 25.16 14.2 57.5 84 11.6 52.8
00:20 1023 30.21 852 25.16 14.3 57.7 83 11.5 52.7
00:25 1023 30.21 852 25.16 14.3 57.8 85 11.9 53.4
00:30 1023 30.21 852 25.16 14.3 57.7 82 11.2 52.2
00:35 1023 30.21 852 25.16 14.4 57.9 85 11.9 53.3
00:40 1022 30.18 852 25.16 14.2 57.5 87 12.1 53.7
00:45 1022 30.18 852 25.16 13.9 57.1 86 11.6 52.9
00:50 1022 30.18 851 25.13 13.9 57 88 11.9 53.5
00:55 1022 30.18 851 25.13 13.7 56.7 87 11.6 52.8
01:00 1022 30.18 851 25.13 13.6 56.5 89 11.8 53.2
01:05 1022 30.18 851 25.13 13.5 56.3 89 11.7 53
01:10 1022 30.18 851 25.13 13.3 55.9 89 11.5 52.7
01:15 1022 30.18 851 25.13 13.2 55.7 91 11.7 53.1
01:20 1021 30.15 851 25.13 12.9 55.2 91 11.5 52.7
01:25 1021 30.15 851 25.13 12.8 55.1 89 11.1 52
01:30 1021 30.15 851 25.13 13 55.4 90 11.4 52.5
01:35 1021 30.15 850 25.1 13.1 55.6 90 11.4 52.6
01:40 1021 30.15 850 25.1 13 55.4 90 11.4 52.6
01:45 1021 30.15 850 25.1 12.8 55.1 91 11.5 52.6
01:50 1021 30.15 850 25.1 12.7 54.9 89 11 51.8
01:55 1021 30.15 850 25.1 12.8 55.1 89 11 51.9
02:00 1021 30.15 850 25.1 13 55.5 88 11.2 52.1
02:05 1021 30.15 850 25.1 13.1 55.5 88 11.1 52.1
02:10 1021 30.15 850 25.1 13.1 55.5 89 11.3 52.3
02:15 1020 30.12 849 25.07 12.9 55.2 89 11.2 52.1
02:20 1020 30.12 850 25.1 13 55.3 88 11.1 51.9
02:25 1021 30.15 850 25.1 12.9 55.3 88 11 51.9
02:30 1021 30.15 850 25.1 13.3 56 84 10.7 51.2
02:35 1021 30.15 850 25.1 13.6 56.5 83 10.9 51.5
02:40 1021 30.15 850 25.1 13.7 56.6 84 11.1 51.9
02:45 1020 30.12 849 25.07 13.4 56.2 85 11 51.7
02:50 1020 30.12 849 25.07 13.3 56 86 11.1 52
02:55 1021 30.15 850 25.1 13.1 55.6 88 11.2 52.1
03:00 1022 30.18 851 25.13 13.1 55.6 87 11 51.9
03:05 1022 30.18 852 25.16 13.5 56.3 85 11 51.8
03:10 1022 30.18 851 25.13 13.8 56.9 84 11.2 52.2
03:15 1022 30.18 851 25.13 13.8 56.9 86 11.5 52.7
03:20 1022 30.18 851 25.13 13.5 56.3 88 11.6 52.9
03:25 1022 30.18 851 25.13 13.2 55.8 88 11.4 52.5
03:30 1022 30.18 851 25.13 13.3 56 87 11.3 52.4
03:35 1022 30.18 851 25.13 13.4 56.1 88 11.5 52.6
03:40 1022 30.18 852 25.16 13.4 56 89 11.6 52.8
03:45 1022 30.18 851 25.13 13.4 56 89 11.6 52.8
03:50 1020 30.12 850 25.1 13.2 55.8 89 11.5 52.6
03:55 1018 30.06 848 25.04 13.1 55.6 89 11.4 52.5
04:00 1018 30.06 847 25.01 13.3 55.9 86 11.1 51.9
04:05 1018 30.06 847 25.01 13.6 56.4 86 11.2 52.2
04:10 1019 30.09 848 25.04 13.7 56.6 85 11.2 52.1
04:15 1019 30.09 848 25.04 13.7 56.7 85 11.2 52.1
04:20 1019 30.09 849 25.07 13.7 56.6 84 11 51.8
04:25 1019 30.09 849 25.07 13.8 56.8 84 11.1 52
04:30 1019 30.09 848 25.04 13.8 56.9 83 11 51.8
04:35 1019 30.09 848 25.04 13.8 56.8 82 10.8 51.5
04:40 1019 30.09 848 25.04 14 57.1 80 10.6 51.1
04:45 1019 30.09 848 25.04 14 57.3 81 10.8 51.5
04:50 1019 30.09 848 25.04 14 57.3 81 10.9 51.6
04:55 1019 30.09 848 25.04 14 57.1 81 10.8 51.5
05:00 1019 30.09 848 25.04 13.9 57 81 10.7 51.3
05:05 1019 30.09 848 25.04 13.9 57.1 81 10.8 51.4
05:10 1019 30.09 848 25.04 13.9 57.1 82 11 51.8
05:15 1019 30.09 848 25.04 13.6 56.5 84 11.1 51.9
05:20 1019 30.09 848 25.04 13.5 56.3 84 10.9 51.5
05:25 1019 30.09 848 25.04 13.5 56.4 84 10.8 51.5
05:30 1019 30.09 848 25.04 13.6 56.5 84 10.9 51.6
05:35 1019 30.09 848 25.04 13.7 56.6 83 10.9 51.6
05:40 1018 30.06 848 25.04 13.7 56.7 83 10.9 51.7
05:45 1019 30.09 848 25.04 13.7 56.7 85 11.2 52.1
05:50 1019 30.09 849 25.07 13.6 56.5 84 11 51.8
05:55 1020 30.12 849 25.07 13.9 56.9 83 11 51.8
06:00 1019 30.09 848 25.04 13.9 57 85 11.4 52.4
06:05 1019 30.09 848 25.04 13.6 56.5 86 11.3 52.4
06:10 1019 30.09 849 25.07 13.5 56.4 85 11.1 52
06:15 1019 30.09 849 25.07 13.6 56.4 84 10.9 51.7
06:20 1019 30.09 848 25.04 13.5 56.3 85 11.1 51.9
06:25 1019 30.09 848 25.04 13.4 56.1 82 10.4 50.8
06:30 1019 30.09 848 25.04 13.6 56.4 85 11.1 51.9
06:35 1019 30.09 848 25.04 13.3 56 85 10.9 51.5
06:40 1019 30.09 848 25.04 13.3 56 85 10.9 51.6
06:45 1019 30.09 848 25.04 13.3 55.9 85 10.9 51.6
06:50 1019 30.09 848 25.04 13.5 56.3 84 11 51.7
06:55 1019 30.09 848 25.04 13.7 56.7 84 11.1 52
07:00 1019 30.09 848 25.04 13.6 56.5 85 11.1 52
07:05 1019 30.09 848 25.04 13.6 56.5 83 10.9 51.6
07:10 1019 30.09 848 25.04 13.6 56.4 82 10.6 51.1
07:15 1020 30.12 849 25.07 13.8 56.8 81 10.7 51.3
07:20 1019 30.09 849 25.07 13.6 56.5 83 10.8 51.5
07:25 1019 30.09 848 25.04 13.3 56 83 10.5 50.9
07:30 1019 30.09 848 25.04 13.3 56 87 11.3 52.3
07:35 1019 30.09 848 25.04 13.2 55.7 86 11 51.7
07:40 1019 30.09 848 25.04 13.3 56 84 10.8 51.4
07:45 1020 30.12 849 25.07 13.6 56.5 83 10.9 51.5
07:50 1020 30.12 849 25.07 13.7 56.6 86 11.3 52.4
07:55 1020 30.12 849 25.07 13.5 56.3 86 11.3 52.3
08:00 1020 30.12 849 25.07 13.5 56.2 87 11.3 52.4
08:05 1019 30.09 848 25.04 13.1 55.7 89 11.4 52.6
08:10 1018 30.06 847 25.01 13 55.4 91 11.6 52.8
08:15 1017 30.03 846 24.98 13.1 55.7 88 11.3 52.3
08:20 1017 30.03 847 25.01 13.4 56.1 88 11.5 52.7
08:25 1018 30.06 847 25.01 13.5 56.2 88 11.5 52.8
08:30 1018 30.06 847 25.01 13.5 56.2 87 11.4 52.6
08:35 1018 30.06 847 25.01 13.6 56.4 85 11.1 51.9
08:40 1017 30.03 847 25.01 13.8 56.9 83 10.9 51.7
08:45 1017 30.03 846 24.98 14.4 57.8 74 9.9 49.8
08:50 1017 30.03 846 24.98 14.8 58.7 78 11 51.8
08:55 1017 30.03 847 25.01 14.9 58.9 72 10.1 50.1
09:00 1017 30.03 846 24.98 15.2 59.3 74 10.7 51.3
09:05 1017 30.03 846 24.98 15.2 59.3 69 9.6 49.3
09:10 1017 30.03 846 24.98 15.6 60 69 9.9 49.9
09:15 1017 30.03 846 24.98 16.1 61 68 10.2 50.3
09:20 1017 30.03 846 24.98 16.6 61.9 72 11.5 52.7
09:25 1017 30.03 846 24.98 16.3 61.4 72 11.4 52.5
09:30 1017 30.03 846 24.98 16.4 61.5 71 11.2 52.2
09:35 1017 30.03 846 24.98 16.7 62 67 10.5 50.9
09:40 1017 30.03 846 24.98 16.9 62.4 65 10.4 50.6
09:45 1017 30.03 846 24.98 16.9 62.3 67 10.7 51.3
09:50 1017 30.03 846 24.98 17.1 62.8 67 11.1 52
09:55 1017 30.03 846 24.98 17.2 63 67 11 51.9
10:00 1017 30.03 846 24.98 17.3 63.2 65 10.7 51.3
10:05 1017 30.03 846 24.98 17.3 63.2 66 11 51.8
10:10 1016 30 846 24.98 17.5 63.4 62 10.2 50.3
10:15 1016 30 846 24.98 17.7 63.8 63 10.6 51
10:20 1016 30 846 24.98 18 64.5 62 10.8 51.4
10:25 1016 30 845 24.95 18.2 64.7 62 10.9 51.5
10:30 1016 30 845 24.95 18.4 65.2 61 11 51.7
10:35 1016 30 845 24.95 19.2 66.5 57 10.5 50.9
10:40 1016 30 845 24.95 19.3 66.7 58 10.9 51.5
10:45 1016 30 845 24.95 19.5 67.1 55 10.2 50.4
10:50 1016 30 845 24.95 19.9 67.8 57 11.2 52.1
10:55 1016 30 845 24.95 20.4 68.7 50 9.9 49.8
11:00 1016 30 845 24.95 20.7 69.3 51 10.3 50.5
11:05 1016 30 845 24.95 21.2 70.1 50 10.4 50.8
11:10 1016 30 845 24.95 21.5 70.6 47 9.9 49.8
11:15 1016 30 845 24.95 22.1 71.8 45 9.6 49.3
11:20 1016 30 845 24.95 22.5 72.6 46 10.4 50.8
11:25 1016 30 845 24.95 23.1 73.5 41 9.2 48.6
11:30 1016 30 845 24.95 23.3 73.9 40 9.1 48.4
11:35 1016 30 845 24.95 23.9 75 35 7.5 45.6
11:40 1016 30 845 24.95 24.2 75.5 34 7.3 45.2
11:45 1016 30 845 24.95 24.4 75.8 34 7.6 45.7
11:50 1016 30 845 24.95 24.8 76.7 32 7.4 45.3
11:55 1016 30 845 24.95 24.2 75.5 33 7.2 44.9
12:00 1016 30 845 24.95 24.1 75.4 32 6.6 44
12:05 1016 30 845 24.95 24.3 75.7 35 8.1 46.5
12:10 1015 29.97 845 24.95 24.3 75.7 25 3.3 38
12:15 1015 29.97 845 24.95 24.7 76.4 23 2.5 36.6
12:20 1015 29.97 844 24.92 25 77 23 2.9 37.2
12:25 1015 29.97 844 24.92 25 77 25 3.6 38.5
12:30 1015 29.97 844 24.92 24.9 76.9 24 3.5 38.3
12:35 1015 29.97 844 24.92 25.2 77.4 20 1 33.8
12:40 1015 29.97 844 24.92 24.8 76.6 23 2.2 36
12:45 1015 29.97 844 24.92 24.8 76.6 22 2.1 35.8
12:50 1015 29.97 844 24.92 25.3 77.5 21 1.4 34.6
12:55 1015 29.97 844 24.92 25.4 77.6 22 2.4 36.4
13:00 1015 29.97 844 24.92 25.2 77.4 20 1.2 34.2
13:05 1015 29.97 844 24.92 25.3 77.6 21 1.7 35
13:10 1015 29.97 844 24.92 25.5 77.8 20 1.3 34.3
13:15 1015 29.97 844 24.92 26 78.7 35 9.5 49.1
13:20 1015 29.97 844 24.92 25.1 77.2 45 12.5 54.5
13:25 1015 29.97 844 24.92 23.4 74 47 11.6 52.8
13:30 1015 29.97 844 24.92 22.4 72.2 48 11 51.8
13:35 1015 29.97 844 24.92 21.8 71.3 46 10 49.9
13:40 1015 29.97 844 24.92 22.1 71.7 45 9.8 49.6
13:45 1015 29.97 844 24.92 22.5 72.6 43 9.3 48.8
13:50 1015 29.97 844 24.92 22.7 72.8 43 9.7 49.4
13:55 1015 29.97 844 24.92 22.4 72.4 44 9.8 49.7
14:00 1015 29.97 844 24.92 21.8 71.2 45 9.5 49.1
14:05 1015 29.97 844 24.92 21.8 71.3 45 9.5 49.1
14:10 1015 29.97 844 24.92 21.5 70.7 43 8.5 47.3
14:15 1015 29.97 844 24.92 21.4 70.6 41 7.8 46
14:20 1015 29.97 844 24.92 21.2 70.2 42 7.8 46.1
14:25 1015 29.97 844 24.92 21.4 70.4 38 6.8 44.2
14:30 1015 29.97 844 24.92 21.5 70.6 38 6.8 44.3
14:35 1015 29.97 844 24.92 21.5 70.7 39 7.2 45
14:40 1015 29.97 844 24.92 21.2 70.1 39 6.7 44
14:45 1015 29.97 844 24.92 21.8 71.3 38 6.9 44.4
14:50 1015 29.97 844 24.92 22.6 72.7 35 6.7 44
14:55 1015 29.97 844 24.92 21.8 71.2 40 7.8 46.1
15:00 1015 29.97 844 24.92 21.4 70.5 39 7.1 44.7
15:05 1015 29.97 844 24.92 22.2 72 37 7.2 44.9
15:10 1015 29.97 844 24.92 22.1 71.7 40 7.9 46.2
15:15 1015 29.97 844 24.92 22.4 72.4 39 8 46.4
15:20 1015 29.97 844 24.92 22.7 72.8 33 5.8 42.4
15:25 1015 29.97 844 24.92 21.9 71.4 36 6.4 43.5
15:30 1015 29.97 844 24.92 21.6 70.9 35 5.8 42.4
15:35 1015 29.97 844 24.92 21.5 70.8 37 6.4 43.5
15:40 1015 29.97 844 24.92 21.4 70.5 35 5.5 41.9
15:45 1015 29.97 844 24.92 21.2 70.1 34 4.9 40.8
15:50 1015 29.97 844 24.92 21.2 70.1 35 5.3 41.6
15:55 1015 29.97 844 24.92 21.3 70.4 36 5.8 42.4
16:00 1015 29.97 844 24.92 21.9 71.4 33 5 41.1
16:05 1015 29.97 844 24.92 21 69.8 35 5.3 41.5
16:10 1015 29.97 844 24.92 20.8 69.4 35 4.9 40.9
16:15 1015 29.97 844 24.92 20.6 69 36 5.2 41.4
16:20 1015 29.97 844 24.92 20.7 69.2 37 5.5 42
16:25 1015 29.97 844 24.92 20.6 69 37 5.6 42.1
16:30 1015 29.97 844 24.92 20.2 68.3 38 5.6 42
16:35 1015 29.97 844 24.92 20.3 68.5 37 5.4 41.6
16:40 1015 29.97 844 24.92 20.8 69.4 34 4.6 40.2
16:45 1015 29.97 844 24.92 21.1 70 36 5.8 42.4
16:50 1015 29.97 844 24.92 20.7 69.2 36 5.3 41.5
16:55 1015 29.97 844 24.92 20.4 68.7 37 5.4 41.7
17:00 1015 29.97 844 24.92 20.2 68.4 36 4.8 40.6
17:05 1015 29.97 844 24.92 20 68 38 5.3 41.6
17:10 1015 29.97 844 24.92 20 68 35 4.1 39.3
17:15 1015 29.97 844 24.92 19.8 67.6 36 4.3 39.7
17:20 1015 29.97 844 24.92 19.6 67.2 32 2.8 37
17:25 1015 29.97 844 24.92 19.4 66.9 35 3.5 38.4
17:30 1015 29.97 844 24.92 19.2 66.6 33 2.8 37.1
17:35 1015 29.97 844 24.92 19.3 66.7 34 3.1 37.5
17:40 1015 29.97 844 24.92 19.3 66.7 35 3.6 38.5
17:45 1015 29.97 845 24.95 19.3 66.7 36 4.1 39.4
17:50 1016 30 845 24.95 19.2 66.6 39 5.1 41.3
17:55 1016 30 845 24.95 18.9 66.1 41 5.5 41.9
18:00 1016 30 845 24.95 18.7 65.6 44 6.2 43.2
18:05 1016 30 845 24.95 18.1 64.7 44 5.7 42.2
18:10 1016 30 846 24.98 17.6 63.7 45 5.5 41.9
18:15 1017 30.03 846 24.98 17.2 62.9 50 6.8 44.3
18:20 1017 30.03 846 24.98 16 60.8 56 7.3 45.2
18:25 1017 30.03 846 24.98 15.1 59.2 61 7.6 45.7
18:30 1017 30.03 847 25.01 14.6 58.2 62 7.4 45.3
18:35 1017 30.03 847 25.01 14.3 57.7 64 7.6 45.6
18:40 1017 30.03 847 25.01 13.9 57.1 68 8.1 46.7
18:45 1017 30.03 847 25.01 13.7 56.6 70 8.4 47.1
18:50 1018 30.06 847 25.01 13.2 55.7 70 7.8 46
18:55 1018 30.06 847 25.01 12.8 55.1 69 7.4 45.3
19:00 1018 30.06 847 25.01 12.6 54.6 71 7.4 45.3
19:05 1018 30.06 848 25.04 12.4 54.2 74 7.9 46.2
19:10 1019 30.09 848 25.04 12 53.7 74 7.6 45.7
19:15 1019 30.09 848 25.04 11.8 53.3 79 8.3 47
19:20 1019 30.09 848 25.04 11.7 53.1 76 7.8 46
19:25 1019 30.09 849 25.07 11.6 52.8 81 8.5 47.3
19:30 1020 30.12 849 25.07 11.4 52.5 82 8.4 47.2
19:35 1020 30.12 849 25.07 11.2 52.2 85 8.7 47.7
19:40 1020 30.12 849 25.07 10.9 51.6 88 9.1 48.3
19:45 1020 30.12 850 25.1 10.5 50.9 89 8.8 47.9
19:50 1020 30.12 849 25.07 9.8 49.7 90 8.3 46.9
19:55 1020 30.12 849 25.07 9.6 49.3 88 7.7 45.9
20:00 1019 30.09 849 25.07 9.2 48.6 85 6.9 44.4
20:05 1019 30.09 848 25.04 9.1 48.4 86 6.9 44.4
20:10 1018 30.06 847 25.01 9.1 48.3 85 6.7 44.1
20:15 1019 30.09 848 25.04 9.2 48.6 85 6.9 44.4
20:20 1019 30.09 848 25.04 9.2 48.6 85 6.9 44.4
20:25 1019 30.09 848 25.04 9.2 48.5 86 6.9 44.4
20:30 1019 30.09 848 25.04 9.3 48.8 85 6.9 44.5
20:35 1019 30.09 848 25.04 9.4 48.9 86 7.2 44.9
20:40 1019 30.09 848 25.04 9.3 48.8 87 7.2 45
20:45 1019 30.09 848 25.04 9.3 48.7 86 7.1 44.8
20:50 1018 30.06 848 25.04 9.4 48.9 86 7.2 44.9
20:55 1018 30.06 848 25.04 9.5 49.2 86 7.4 45.2
21:00 1019 30.09 848 25.04 9.6 49.2 86 7.3 45.1
21:05 1019 30.09 848 25.04 9.9 49.8 81 6.7 44.1
21:10 1019 30.09 848 25.04 10.2 50.3 81 7.1 44.7
21:15 1019 30.09 848 25.04 10.2 50.3 81 7 44.6
21:20 1019 30.09 848 25.04 10.3 50.5 79 6.8 44.3
21:25 1019 30.09 848 25.04 10.3 50.5 82 7.3 45.2
21:30 1019 30.09 848 25.04 10.3 50.5 82 7.3 45.1
21:35 1019 30.09 848 25.04 10.3 50.5 80 7 44.7
21:40 1019 30.09 848 25.04 10.3 50.6 79 6.9 44.4
21:45 1019 30.09 849 25.07 10.4 50.7 79 6.9 44.4
21:50 1019 30.09 849 25.07 10.4 50.7 81 7.2 45
21:55 1019 30.09 849 25.07 10.3 50.6 80 7 44.6
22:00 1019 30.09 849 25.07 10.2 50.4 79 6.8 44.2
22:05 1020 30.12 849 25.07 10.3 50.5 83 7.5 45.4
22:10 1019 30.09 849 25.07 10.1 50.2 84 7.5 45.4
22:15 1019 30.09 849 25.07 10.1 50.1 86 7.9 46.1
22:20 1019 30.09 849 25.07 9.9 49.9 87 7.9 46.2
22:25 1019 30.09 849 25.07 9.7 49.5 85 7.3 45.1
22:30 1020 30.12 849 25.07 9.8 49.6 86 7.6 45.6
22:35 1020 30.12 849 25.07 9.9 49.8 88 8 46.4
22:40 1020 30.12 849 25.07 10 50.1 86 7.8 46
22:45 1020 30.12 849 25.07 10 50 87 7.9 46.2
22:50 1020 30.12 849 25.07 10.1 50.1 85 7.8 46
22:55 1020 30.12 849 25.07 10.3 50.6 86 8 46.5
23:00 1019 30.09 849 25.07 10.5 50.8 80 7.2 44.9
23:05 1020 30.12 849 25.07 10.8 51.4 81 7.6 45.7
23:10 1020 30.12 849 25.07 10.8 51.5 84 8.3 46.9
23:15 1020 30.12 849 25.07 10.7 51.3 85 8.2 46.8
23:20 1019 30.09 849 25.07 10.8 51.4 77 6.9 44.4
23:25 1020 30.12 849 25.07 10.9 51.6 77 7.1 44.8
23:30 1019 30.09 849 25.07 10.9 51.6 76 6.8 44.3
23:35 1019 30.09 849 25.07 10.9 51.7 74 6.6 43.8
23:40 1019 30.09 849 25.07 10.9 51.7 75 6.8 44.2
23:45 1019 30.09 849 25.07 10.9 51.5 76 6.9 44.4
23:50 1019 30.09 849 25.07 10.9 51.6 73 6.2 43.2
23:55 1019 30.09 849 25.07 11.1 52 72 6.2 43.2
24:00 1019 30.09 849 25.07 11.1 52 75 6.9 44.5